Time;durP1;ratioP1;P1;durP2;ratioP2;P2;SDS_P1;SDS_P2;PMS_P1;PMS_P2;Temp;Humidity;BMP_temperature;BMP_pressure;BME280_temperature;BME280_humidity;BME280_pressure;Samples;Min_cycle;Max_cycle;Signal;HPM_P1;HPM_P2
2023/10/16 00:00:29;;;;;;;;;;;;;;;5.75;76.75;100619.44;1088801;47;1022;-81
2023/10/16 00:01:31;;;;;;;;;;;;;;;5.75;76.40;100616.78;1088660;46;942;-82
2023/10/16 00:02:34;;;;;;;;;;;;;;;5.77;76.74;100617.50;1088692;54;909;-81
2023/10/16 00:03:42;;;;;;;;;;;;;;;5.81;76.38;100618.16;1088950;54;1049;-82
2023/10/16 00:04:46;;;;;;;;;;;;;;;5.83;75.75;100616.25;1088860;46;1028;-83
2023/10/16 00:05:49;;;;;;;;;;;;;;;5.88;76.19;100613.31;1088664;54;1298;-82
2023/10/16 00:07:03;;;;;;;;;;;;;;;5.92;75.80;100612.16;1088861;47;957;-82
2023/10/16 00:08:06;;;;;;;;;;;;;;;5.87;76.11;100607.16;1088881;54;896;-83
2023/10/16 00:09:14;;;;;;;;;;;;;;;5.91;75.55;100613.13;1088856;54;912;-81
2023/10/16 00:10:19;;;;;;;;;;;;;;;5.92;75.32;100609.50;1088908;47;1059;-82
2023/10/16 00:11:23;;;;;;;;;;;;;;;5.89;75.58;100610.56;1088882;47;920;-81
2023/10/16 00:12:29;;;;;;;;;;;;;;;5.91;74.96;100613.13;1088674;46;976;-81
2023/10/16 00:13:30;;;;;;;;;;;;;;;5.94;74.84;100604.97;1088253;46;1021;-82
2023/10/16 00:14:33;;;;;;;;;;;;;;;5.97;74.54;100622.47;1088389;54;946;-82
2023/10/16 00:15:40;;;;;;;;;;;;;;;5.97;74.58;100618.00;1087867;54;1391;-81
2023/10/16 00:16:44;;;;;;;;;;;;;;;5.86;74.98;100628.47;1088117;54;1292;-82
2023/10/16 00:17:45;;;;;;;;;;;;;;;5.75;75.40;100635.34;1088197;54;1873;-81
2023/10/16 00:18:50;;;;;;;;;;;;;;;5.62;75.88;100634.44;1088250;54;938;-81
2023/10/16 00:19:54;;;;;;;;;;;;;;;5.58;76.29;100641.75;1087994;46;975;-81
2023/10/16 00:20:55;;;;;;;;;;;;;;;5.54;76.21;100640.22;1088189;47;1312;-82
2023/10/16 00:21:58;;;;;;;;;;;;;;;5.46;76.35;100635.41;1088217;47;960;-83
2023/10/16 00:22:59;;;;;;;;;;;;;;;5.44;76.40;100647.91;1088184;47;1067;-81
2023/10/16 00:24:07;;;;;;;;;;;;;;;5.34;76.84;100640.66;1088024;54;946;-82
2023/10/16 00:25:07;;;;;;;;;;;;;;;5.32;77.01;100638.06;1088017;46;1323;-82
2023/10/16 00:26:12;;;;;;;;;;;;;;;5.25;77.29;100636.75;1088221;47;1024;-82
2023/10/16 00:27:14;;;;;;;;;;;;;;;5.22;77.49;100629.00;1088343;54;1068;-81
2023/10/16 00:28:18;;;;;;;;;;;;;;;5.20;77.54;100625.56;1088280;54;968;-82
2023/10/16 00:29:24;;;;;;;;;;;;;;;5.17;77.34;100631.94;1088447;54;1047;-82
2023/10/16 00:30:27;;;;;;;;;;;;;;;5.00;77.95;100633.00;1088367;46;1281;-82
2023/10/16 00:31:32;;;;;;;;;;;;;;;4.99;77.61;100637.44;1088235;54;894;-82
2023/10/16 00:32:36;;;;;;;;;;;;;;;4.95;77.83;100632.41;1087863;54;971;-80
2023/10/16 00:33:40;;;;;;;;;;;;;;;4.86;78.00;100633.84;1087609;54;1035;-80
2023/10/16 00:34:41;;;;;;;;;;;;;;;4.89;78.36;100640.75;1088671;54;1026;-81
2023/10/16 00:35:43;;;;;;;;;;;;;;;4.85;78.27;100642.72;1088147;54;1477;-81
2023/10/16 00:36:46;;;;;;;;;;;;;;;4.81;78.15;100647.38;1087841;46;1075;-81
2023/10/16 00:37:49;;;;;;;;;;;;;;;4.69;78.72;100641.00;1087907;54;1079;-80
2023/10/16 00:38:54;;;;;;;;;;;;;;;4.64;79.06;100643.06;1087939;54;942;-80
2023/10/16 00:39:57;;;;;;;;;;;;;;;4.69;78.84;100646.28;1087681;54;1286;-82
2023/10/16 00:41:15;;;;;;;;;;;;;;;4.71;78.61;100638.28;1088107;54;1026;-80
2023/10/16 00:42:16;;;;;;;;;;;;;;;4.72;78.57;100639.97;1087995;54;1008;-80
2023/10/16 00:43:20;;;;;;;;;;;;;;;4.74;78.65;100642.53;1088171;46;968;-82
2023/10/16 00:44:22;;;;;;;;;;;;;;;4.74;78.20;100638.06;1087962;54;924;-80
2023/10/16 00:45:26;;;;;;;;;;;;;;;4.77;77.99;100642.34;1088063;54;1371;-81
2023/10/16 00:46:30;;;;;;;;;;;;;;;4.65;78.42;100644.78;1087993;54;978;-81
2023/10/16 00:47:35;;;;;;;;;;;;;;;4.70;78.38;100647.16;1087944;47;1075;-83
2023/10/16 00:48:37;;;;;;;;;;;;;;;4.71;78.08;100648.88;1088248;54;932;-82
2023/10/16 00:49:41;;;;;;;;;;;;;;;4.67;78.46;100642.03;1087917;47;1043;-80
2023/10/16 00:50:43;;;;;;;;;;;;;;;4.62;78.76;100644.97;1087911;46;1114;-81
2023/10/16 00:51:45;;;;;;;;;;;;;;;4.62;78.89;100641.47;1087480;54;1034;-81
2023/10/16 00:52:48;;;;;;;;;;;;;;;4.70;78.30;100631.25;1087282;54;1315;-81
2023/10/16 00:53:49;;;;;;;;;;;;;;;4.73;78.44;100627.56;1087443;47;1050;-81
2023/10/16 00:54:53;;;;;;;;;;;;;;;4.78;78.07;100629.00;1087427;47;1078;-81
2023/10/16 00:55:57;;;;;;;;;;;;;;;4.85;77.70;100624.19;1087343;47;1126;-81
2023/10/16 00:56:58;;;;;;;;;;;;;;;4.89;77.64;100628.34;1087438;46;1016;-81
2023/10/16 00:58:04;;;;;;;;;;;;;;;4.96;77.37;100628.81;1087392;54;1872;-81
2023/10/16 00:59:05;;;;;;;;;;;;;;;4.98;77.00;100630.41;1088263;54;987;-82
2023/10/16 01:00:12;;;;;;;;;;;;;;;5.03;77.05;100627.47;1087982;54;920;-82
2023/10/16 01:01:13;;;;;;;;;;;;;;;5.06;77.01;100627.31;1088219;54;1039;-82
2023/10/16 01:02:26;;;;;;;;;;;;;;;5.07;76.61;100634.31;1088494;54;1005;-81
2023/10/16 01:03:27;;;;;;;;;;;;;;;5.04;76.64;100629.19;1088539;54;1035;-81
2023/10/16 01:04:35;;;;;;;;;;;;;;;5.12;76.47;100624.25;1088807;54;1015;-82
2023/10/16 01:05:39;;;;;;;;;;;;;;;5.05;76.30;100622.94;1088431;54;1296;-82
2023/10/16 01:06:48;;;;;;;;;;;;;;;5.07;76.49;100614.88;1088190;54;960;-82
2023/10/16 01:07:50;;;;;;;;;;;;;;;5.04;76.43;100618.59;1088203;47;1135;-81
2023/10/16 01:08:54;;;;;;;;;;;;;;;4.95;76.50;100613.88;1088161;54;1011;-82
2023/10/16 01:09:57;;;;;;;;;;;;;;;4.91;76.54;100615.84;1087988;54;1121;-81
2023/10/16 01:11:01;;;;;;;;;;;;;;;4.91;76.48;100607.06;1087926;47;875;-81
2023/10/16 01:12:06;;;;;;;;;;;;;;;4.89;76.97;100608.94;1088030;54;1047;-80
2023/10/16 01:13:11;;;;;;;;;;;;;;;4.80;77.14;100616.53;1088091;54;985;-81
2023/10/16 01:14:15;;;;;;;;;;;;;;;4.75;77.40;100618.56;1088399;54;1068;-81
2023/10/16 01:15:16;;;;;;;;;;;;;;;4.80;77.72;100621.81;1087827;47;1260;-80
2023/10/16 01:16:20;;;;;;;;;;;;;;;4.89;77.42;100617.75;1087599;54;1189;-81
2023/10/16 01:17:29;;;;;;;;;;;;;;;4.92;77.17;100617.56;1087405;47;1101;-80
2023/10/16 01:18:32;;;;;;;;;;;;;;;5.00;76.82;100614.44;1088084;54;1853;-81
2023/10/16 01:19:36;;;;;;;;;;;;;;;4.92;76.89;100614.03;1088556;54;939;-81
2023/10/16 01:20:40;;;;;;;;;;;;;;;4.84;77.02;100609.22;1088014;47;1117;-82
2023/10/16 01:21:44;;;;;;;;;;;;;;;4.84;77.23;100607.41;1088112;47;946;-83
2023/10/16 01:22:52;;;;;;;;;;;;;;;4.87;77.17;100606.38;1088247;54;911;-80
2023/10/16 01:23:55;;;;;;;;;;;;;;;4.88;77.02;100609.88;1088651;54;1074;-81
2023/10/16 01:24:59;;;;;;;;;;;;;;;4.88;77.12;100605.44;1088511;54;1395;-82
2023/10/16 01:26:01;;;;;;;;;;;;;;;4.92;77.09;100606.09;1088214;54;957;-82
2023/10/16 01:27:06;;;;;;;;;;;;;;;4.92;76.98;100611.38;1088345;47;973;-82
2023/10/16 01:28:07;;;;;;;;;;;;;;;4.92;77.02;100608.75;1088211;47;865;-82
2023/10/16 01:29:14;;;;;;;;;;;;;;;4.89;76.88;100611.59;1088091;47;923;-81
2023/10/16 01:30:17;;;;;;;;;;;;;;;4.84;77.05;100607.41;1088011;54;928;-81
2023/10/16 01:31:20;;;;;;;;;;;;;;;4.82;77.08;100603.16;1087817;47;960;-80
2023/10/16 01:32:21;;;;;;;;;;;;;;;4.80;76.91;100600.63;1087933;46;877;-81
2023/10/16 01:33:24;;;;;;;;;;;;;;;4.80;77.24;100603.28;1087827;46;947;-81
2023/10/16 01:34:25;;;;;;;;;;;;;;;4.82;76.96;100604.00;1087847;54;899;-81
2023/10/16 01:35:29;;;;;;;;;;;;;;;4.88;76.82;100605.44;1087765;47;1266;-81
2023/10/16 01:36:30;;;;;;;;;;;;;;;4.93;76.62;100605.16;1087614;54;955;-82
2023/10/16 01:37:33;;;;;;;;;;;;;;;4.97;76.46;100606.69;1087919;54;1114;-80
2023/10/16 01:38:36;;;;;;;;;;;;;;;4.96;76.38;100599.66;1088076;54;1862;-82
2023/10/16 01:39:48;;;;;;;;;;;;;;;4.99;76.70;100596.84;1088025;54;925;-82
2023/10/16 01:41:04;;;;;;;;;;;;;;;5.03;76.25;100595.69;1088141;54;1046;-81
2023/10/16 01:42:11;;;;;;;;;;;;;;;5.07;76.27;100601.63;1088049;54;915;-82
2023/10/16 01:43:14;;;;;;;;;;;;;;;5.09;76.33;100600.63;1088033;54;906;-80
2023/10/16 01:44:18;;;;;;;;;;;;;;;5.12;76.23;100604.88;1088083;54;1013;-82
2023/10/16 01:45:22;;;;;;;;;;;;;;;5.07;76.61;100599.84;1087638;47;1278;-82
2023/10/16 01:46:23;;;;;;;;;;;;;;;5.09;76.29;100592.66;1087344;54;1146;-81
2023/10/16 01:47:24;;;;;;;;;;;;;;;4.97;76.40;100599.56;1087974;54;975;-80
2023/10/16 01:48:28;;;;;;;;;;;;;;;4.89;76.39;100593.88;1087396;47;1027;-80
2023/10/16 01:49:28;;;;;;;;;;;;;;;4.84;76.87;100601.28;1087259;46;970;-80
2023/10/16 01:50:32;;;;;;;;;;;;;;;4.81;76.80;100596.16;1087228;47;1392;-81
2023/10/16 01:51:35;;;;;;;;;;;;;;;4.76;77.10;100600.91;1087363;47;1407;-81
2023/10/16 01:52:40;;;;;;;;;;;;;;;4.78;76.78;100591.91;1087580;54;1011;-81
2023/10/16 01:53:40;;;;;;;;;;;;;;;4.87;76.87;100597.59;1087343;47;1170;-81
2023/10/16 01:54:48;;;;;;;;;;;;;;;4.84;76.53;100594.16;1087444;54;1026;-80
2023/10/16 01:55:51;;;;;;;;;;;;;;;4.90;76.38;100594.75;1087503;54;1382;-81
2023/10/16 01:56:54;;;;;;;;;;;;;;;4.90;76.42;100594.75;1087261;47;975;-81
2023/10/16 01:57:56;;;;;;;;;;;;;;;4.98;76.47;100595.13;1087385;47;1353;-81
2023/10/16 01:59:01;;;;;;;;;;;;;;;5.00;76.18;100595.91;1087539;54;1857;-81
2023/10/16 02:00:16;;;;;;;;;;;;;;;5.05;75.97;100588.50;1087450;54;1097;-81
2023/10/16 02:01:20;;;;;;;;;;;;;;;5.07;75.87;100596.34;1087346;47;940;-80
2023/10/16 02:02:20;;;;;;;;;;;;;;;5.06;75.69;100592.84;1087330;47;947;-80
2023/10/16 02:03:25;;;;;;;;;;;;;;;5.07;75.64;100586.59;1087337;54;1389;-81
2023/10/16 02:04:26;;;;;;;;;;;;;;;5.11;75.86;100590.75;1087895;54;1042;-82
2023/10/16 02:05:31;;;;;;;;;;;;;;;5.04;75.49;100588.59;1087832;54;1251;-83
2023/10/16 02:06:36;;;;;;;;;;;;;;;5.07;75.58;100591.91;1088191;54;1015;-83
2023/10/16 02:07:41;;;;;;;;;;;;;;;5.00;75.58;100585.28;1088159;54;1177;-83
2023/10/16 02:08:46;;;;;;;;;;;;;;;4.90;76.20;100597.41;1087983;47;837;-83
2023/10/16 02:09:49;;;;;;;;;;;;;;;4.94;76.57;100585.66;1088292;54;1026;-82
2023/10/16 02:10:53;;;;;;;;;;;;;;;4.97;76.25;100588.13;1087803;54;957;-82
2023/10/16 02:11:53;;;;;;;;;;;;;;;4.97;76.01;100585.47;1087888;47;999;-82
2023/10/16 02:12:58;;;;;;;;;;;;;;;5.02;75.87;100585.19;1087965;47;866;-82
2023/10/16 02:13:59;;;;;;;;;;;;;;;5.05;75.93;100585.84;1087993;47;973;-82
2023/10/16 02:15:05;;;;;;;;;;;;;;;4.98;75.79;100590.66;1087889;54;1314;-81
2023/10/16 02:16:09;;;;;;;;;;;;;;;4.89;76.04;100590.41;1087881;47;819;-82
2023/10/16 02:17:19;;;;;;;;;;;;;;;4.81;76.16;100591.72;1087210;54;1205;-82
2023/10/16 02:18:22;;;;;;;;;;;;;;;4.83;76.27;100595.13;1087870;54;878;-83
2023/10/16 02:19:26;;;;;;;;;;;;;;;4.86;75.88;100595.88;1087873;47;1852;-82
2023/10/16 02:20:31;;;;;;;;;;;;;;;4.77;76.27;100584.91;1087951;54;965;-82
2023/10/16 02:21:35;;;;;;;;;;;;;;;4.73;76.22;100591.31;1087822;47;946;-82
2023/10/16 02:22:35;;;;;;;;;;;;;;;4.65;76.15;100588.28;1087804;54;1111;-82
2023/10/16 02:23:39;;;;;;;;;;;;;;;4.61;76.46;100589.44;1088018;54;911;-83
2023/10/16 02:24:40;;;;;;;;;;;;;;;4.52;76.94;100586.41;1087906;47;1050;-83
2023/10/16 02:25:47;;;;;;;;;;;;;;;4.48;77.09;100584.88;1087850;54;1338;-81
2023/10/16 02:26:55;;;;;;;;;;;;;;;4.42;77.13;100587.03;1087663;54;949;-82
2023/10/16 02:27:56;;;;;;;;;;;;;;;4.49;77.02;100583.06;1087852;47;926;-81
2023/10/16 02:29:00;;;;;;;;;;;;;;;4.55;76.56;100585.38;1087908;54;1170;-83
2023/10/16 02:30:15;;;;;;;;;;;;;;;4.61;76.60;100585.00;1087913;47;943;-82
2023/10/16 02:31:19;;;;;;;;;;;;;;;4.67;76.50;100584.63;1088292;54;1022;-82
2023/10/16 02:32:22;;;;;;;;;;;;;;;4.73;76.54;100583.38;1087943;47;946;-82
2023/10/16 02:33:26;;;;;;;;;;;;;;;4.75;76.07;100580.66;1088431;54;1022;-82
2023/10/16 02:34:28;;;;;;;;;;;;;;;4.69;76.02;100587.19;1087683;47;961;-83
2023/10/16 02:35:29;;;;;;;;;;;;;;;4.63;76.58;100580.47;1087730;47;1271;-81
2023/10/16 02:36:32;;;;;;;;;;;;;;;4.63;76.43;100577.81;1087790;54;1012;-82
2023/10/16 02:37:33;;;;;;;;;;;;;;;4.71;76.25;100580.00;1088001;54;967;-83
2023/10/16 02:38:36;;;;;;;;;;;;;;;4.73;76.19;100577.25;1087637;54;1852;-82
2023/10/16 02:39:37;;;;;;;;;;;;;;;4.73;75.96;100579.91;1087886;54;978;-83
2023/10/16 02:40:39;;;;;;;;;;;;;;;4.81;75.90;100578.50;1087935;47;857;-82
2023/10/16 02:41:45;;;;;;;;;;;;;;;4.86;75.56;100574.69;1087939;47;1032;-83
2023/10/16 02:42:51;;;;;;;;;;;;;;;4.85;75.68;100565.91;1087873;47;1438;-82
2023/10/16 02:43:54;;;;;;;;;;;;;;;4.81;76.54;100564.38;1088091;47;883;-83
2023/10/16 02:44:56;;;;;;;;;;;;;;;4.83;76.13;100570.44;1087822;47;1300;-83
2023/10/16 02:46:01;;;;;;;;;;;;;;;4.78;76.60;100572.50;1088169;47;1020;-82
2023/10/16 02:47:05;;;;;;;;;;;;;;;4.74;76.25;100566.53;1088051;54;931;-83
2023/10/16 02:48:09;;;;;;;;;;;;;;;4.63;76.75;100563.72;1088001;54;884;-82
2023/10/16 02:49:10;;;;;;;;;;;;;;;4.58;77.16;100557.84;1087819;47;999;-83
2023/10/16 02:50:14;;;;;;;;;;;;;;;4.61;77.01;100562.97;1087945;54;1040;-82
2023/10/16 02:51:16;;;;;;;;;;;;;;;4.65;77.10;100569.75;1087990;54;916;-82
2023/10/16 02:52:19;;;;;;;;;;;;;;;4.65;77.00;100567.09;1087994;47;900;-81
2023/10/16 02:53:21;;;;;;;;;;;;;;;4.65;77.34;100564.47;1087948;47;1137;-82
2023/10/16 02:54:25;;;;;;;;;;;;;;;4.64;77.04;100571.56;1087883;54;976;-82
2023/10/16 02:55:25;;;;;;;;;;;;;;;4.64;77.16;100565.41;1087887;47;1431;-83
2023/10/16 02:56:28;;;;;;;;;;;;;;;4.58;77.66;100563.97;1087872;54;1111;-83
2023/10/16 02:57:33;;;;;;;;;;;;;;;4.63;77.12;100558.44;1088003;54;1067;-82
2023/10/16 02:58:42;;;;;;;;;;;;;;;4.49;78.42;100565.41;1088012;54;888;-82
2023/10/16 02:59:43;;;;;;;;;;;;;;;4.50;78.71;100567.13;1088167;47;989;-82
2023/10/16 03:00:49;;;;;;;;;;;;;;;4.49;78.69;100562.75;1088056;54;954;-81
2023/10/16 03:01:50;;;;;;;;;;;;;;;4.40;78.98;100571.25;1087956;54;979;-82
2023/10/16 03:02:51;;;;;;;;;;;;;;;4.36;78.93;100578.53;1088094;54;964;-82
2023/10/16 03:03:54;;;;;;;;;;;;;;;4.31;79.11;100571.81;1087978;47;969;-82
2023/10/16 03:05:09;;;;;;;;;;;;;;;4.32;79.48;100579.66;1087820;47;1379;-82
2023/10/16 03:06:13;;;;;;;;;;;;;;;4.30;79.16;100580.69;1087849;54;848;-82
2023/10/16 03:07:14;;;;;;;;;;;;;;;4.27;79.37;100580.84;1087850;47;912;-83
2023/10/16 03:08:18;;;;;;;;;;;;;;;4.22;79.62;100579.34;1087888;54;1042;-82
2023/10/16 03:09:28;;;;;;;;;;;;;;;4.19;79.58;100573.41;1087894;54;1039;-82
2023/10/16 03:10:30;;;;;;;;;;;;;;;4.19;79.59;100571.59;1087835;54;1042;-82
2023/10/16 03:11:34;;;;;;;;;;;;;;;4.16;79.49;100579.69;1088073;54;937;-82
2023/10/16 03:12:37;;;;;;;;;;;;;;;4.18;79.33;100575.16;1087723;47;923;-81
2023/10/16 03:13:40;;;;;;;;;;;;;;;4.15;79.32;100583.31;1087733;54;1004;-82
2023/10/16 03:14:51;;;;;;;;;;;;;;;4.16;79.96;100577.06;1087929;47;955;-82
2023/10/16 03:15:59;;;;;;;;;;;;;;;4.10;80.21;100574.78;1088057;54;1369;-83
2023/10/16 03:17:09;;;;;;;;;;;;;;;4.07;80.19;100572.31;1088477;47;956;-83
2023/10/16 03:18:16;;;;;;;;;;;;;;;4.03;80.24;100578.72;1087544;54;1216;-82
2023/10/16 03:19:21;;;;;;;;;;;;;;;3.98;81.18;100572.84;1088665;54;1860;-83
2023/10/16 03:20:23;;;;;;;;;;;;;;;3.97;80.85;100574.66;1088495;54;959;-82
2023/10/16 03:21:31;;;;;;;;;;;;;;;3.92;81.01;100570.56;1088689;46;984;-83
2023/10/16 03:22:32;;;;;;;;;;;;;;;3.88;81.18;100578.66;1088433;54;1027;-83
2023/10/16 03:23:35;;;;;;;;;;;;;;;3.95;80.78;100576.53;1088383;47;879;-82
2023/10/16 03:24:36;;;;;;;;;;;;;;;3.98;80.53;100580.78;1088300;54;1148;-83
2023/10/16 03:25:54;;;;;;;;;;;;;;;3.97;80.53;100576.44;1088467;46;1397;-83
2023/10/16 03:26:57;;;;;;;;;;;;;;;3.98;80.41;100576.34;1088192;54;1031;-81
2023/10/16 03:28:05;;;;;;;;;;;;;;;4.06;80.01;100578.56;1088307;54;876;-83
2023/10/16 03:29:06;;;;;;;;;;;;;;;4.13;79.63;100574.59;1088247;54;985;-82
2023/10/16 03:30:10;;;;;;;;;;;;;;;4.01;79.86;100570.91;1088097;47;834;-82
2023/10/16 03:31:11;;;;;;;;;;;;;;;3.93;80.03;100566.97;1088146;47;943;-83
2023/10/16 03:32:15;;;;;;;;;;;;;;;3.94;80.71;100566.03;1088416;46;941;-83
2023/10/16 03:33:15;;;;;;;;;;;;;;;3.96;80.27;100564.16;1088340;46;856;-83
2023/10/16 03:34:21;;;;;;;;;;;;;;;3.90;80.64;100562.72;1088125;47;977;-82
2023/10/16 03:35:26;;;;;;;;;;;;;;;3.90;80.66;100557.44;1088294;47;1254;-82
2023/10/16 03:36:29;;;;;;;;;;;;;;;3.87;80.43;100558.44;1088266;47;976;-84
2023/10/16 03:37:30;;;;;;;;;;;;;;;3.88;80.51;100556.66;1088479;47;959;-83
2023/10/16 03:38:37;;;;;;;;;;;;;;;3.85;80.24;100557.69;1088624;46;970;-82
2023/10/16 03:39:38;;;;;;;;;;;;;;;3.78;80.60;100563.44;1088282;54;1876;-82
2023/10/16 03:40:44;;;;;;;;;;;;;;;3.71;81.04;100566.44;1088519;54;984;-83
2023/10/16 03:41:48;;;;;;;;;;;;;;;3.65;81.37;100558.81;1088451;47;965;-83
2023/10/16 03:42:51;;;;;;;;;;;;;;;3.67;81.29;100564.06;1088608;47;947;-82
2023/10/16 03:43:56;;;;;;;;;;;;;;;3.62;81.46;100563.44;1088482;46;884;-82
2023/10/16 03:45:06;;;;;;;;;;;;;;;3.59;81.24;100560.03;1088481;54;1316;-83
2023/10/16 03:46:07;;;;;;;;;;;;;;;3.55;81.46;100558.50;1088705;47;1063;-83
2023/10/16 03:47:10;;;;;;;;;;;;;;;3.65;81.55;100552.69;1088532;54;981;-82
2023/10/16 03:48:11;;;;;;;;;;;;;;;3.67;80.80;100551.66;1088932;46;860;-82
2023/10/16 03:49:15;;;;;;;;;;;;;;;3.72;80.96;100557.56;1088625;54;982;-82
2023/10/16 03:50:16;;;;;;;;;;;;;;;3.78;80.37;100553.69;1088702;54;932;-83
2023/10/16 03:51:21;;;;;;;;;;;;;;;3.82;80.60;100560.50;1088454;54;946;-82
2023/10/16 03:52:22;;;;;;;;;;;;;;;3.86;79.97;100556.75;1088567;54;901;-81
2023/10/16 03:53:29;;;;;;;;;;;;;;;3.92;79.77;100567.91;1088633;46;976;-82
2023/10/16 03:54:35;;;;;;;;;;;;;;;3.90;79.07;100552.97;1088606;54;974;-83
2023/10/16 03:55:47;;;;;;;;;;;;;;;3.95;79.11;100559.81;1088590;54;1337;-82
2023/10/16 03:56:47;;;;;;;;;;;;;;;3.94;79.24;100558.09;1088645;54;923;-83
2023/10/16 03:57:51;;;;;;;;;;;;;;;3.88;78.94;100552.22;1088402;54;1094;-82
2023/10/16 03:58:53;;;;;;;;;;;;;;;3.90;79.46;100550.34;1088689;54;983;-81
2023/10/16 03:59:59;;;;;;;;;;;;;;;3.94;79.32;100542.22;1088487;47;1872;-81
2023/10/16 04:01:07;;;;;;;;;;;;;;;3.94;79.47;100544.88;1088564;54;961;-83
2023/10/16 04:02:17;;;;;;;;;;;;;;;3.98;79.55;100551.66;1088241;54;971;-82
2023/10/16 04:03:18;;;;;;;;;;;;;;;3.99;79.40;100545.44;1088418;46;1153;-81
2023/10/16 04:04:24;;;;;;;;;;;;;;;3.98;79.44;100547.25;1088077;54;933;-82
2023/10/16 04:05:29;;;;;;;;;;;;;;;4.03;79.30;100549.63;1088157;46;1318;-82
2023/10/16 04:06:39;;;;;;;;;;;;;;;4.03;78.86;100553.09;1088136;54;1028;-81
2023/10/16 04:07:40;;;;;;;;;;;;;;;4.08;78.47;100559.94;1088232;46;960;-82
2023/10/16 04:08:43;;;;;;;;;;;;;;;3.97;78.75;100557.94;1088069;47;906;-82
2023/10/16 04:09:49;;;;;;;;;;;;;;;4.02;78.95;100558.50;1087908;46;991;-82
2023/10/16 04:10:53;;;;;;;;;;;;;;;4.07;78.54;100553.78;1088058;54;980;-84
2023/10/16 04:11:54;;;;;;;;;;;;;;;4.10;78.42;100555.41;1088237;54;976;-82
2023/10/16 04:12:55;;;;;;;;;;;;;;;3.98;78.53;100551.66;1088160;54;1032;-82
2023/10/16 04:13:58;;;;;;;;;;;;;;;3.96;78.87;100556.22;1088277;47;967;-81
2023/10/16 04:15:04;;;;;;;;;;;;;;;3.94;79.05;100551.00;1088073;47;1324;-82
2023/10/16 04:16:11;;;;;;;;;;;;;;;3.87;79.41;100558.44;1088247;54;980;-82
2023/10/16 04:17:15;;;;;;;;;;;;;;;3.78;79.20;100553.69;1088184;47;976;-81
2023/10/16 04:18:27;;;;;;;;;;;;;;;3.75;79.65;100559.16;1088049;54;1102;-82
2023/10/16 04:19:36;;;;;;;;;;;;;;;3.74;79.77;100553.00;1088370;46;1846;-82
2023/10/16 04:20:43;;;;;;;;;;;;;;;3.69;79.23;100554.22;1088193;47;1386;-81
2023/10/16 04:21:50;;;;;;;;;;;;;;;3.63;79.56;100549.28;1088171;47;860;-81
2023/10/16 04:22:58;;;;;;;;;;;;;;;3.59;80.24;100549.44;1088325;46;892;-82
2023/10/16 04:23:58;;;;;;;;;;;;;;;3.65;79.54;100553.53;1088432;47;1182;-82
2023/10/16 04:25:02;;;;;;;;;;;;;;;3.66;79.54;100555.25;1088449;47;1336;-81
2023/10/16 04:27:33;;;;;;;;;;;;;;;3.68;79.45;100557.81;1088716;46;880;-80
2023/10/16 04:29:20;;;;;;;;;;;;;;;3.64;79.16;100551.00;1088430;47;962;-81
2023/10/16 04:31:44;;;;;;;;;;;;;;;3.51;80.06;100550.84;1088149;47;944;-82
2023/10/16 04:32:56;;;;;;;;;;;;;;;3.44;79.35;100555.63;1088383;54;946;-81
2023/10/16 04:34:13;;;;;;;;;;;;;;;3.50;79.58;100549.13;1088219;54;947;-80
2023/10/16 04:35:51;;;;;;;;;;;;;;;3.57;78.98;100547.84;1088796;54;1435;-81
2023/10/16 04:37:24;;;;;;;;;;;;;;;3.63;78.52;100551.94;1088644;46;839;-82
2023/10/16 04:38:30;;;;;;;;;;;;;;;3.68;78.17;100552.53;1088772;46;927;-81
2023/10/16 04:43:37;;;;;;;;;;;;;;;3.46;76.98;100540.53;1088247;46;773;-81
2023/10/16 04:44:57;;;;;;;;;;;;;;;3.42;78.38;100544.28;1088160;54;996;-82
2023/10/16 04:46:16;;;;;;;;;;;;;;;3.47;78.03;100531.66;1088325;46;941;-82
2023/10/16 04:47:25;;;;;;;;;;;;;;;3.40;77.50;100540.88;1088053;54;954;-81
2023/10/16 04:48:47;;;;;;;;;;;;;;;3.42;78.07;100537.22;1088059;54;1028;-82
2023/10/16 04:49:59;;;;;;;;;;;;;;;3.40;77.51;100535.59;1088127;47;926;-82
2023/10/16 04:51:16;;;;;;;;;;;;;;;3.31;77.55;100536.13;1088193;54;951;-81
2023/10/16 04:52:36;;;;;;;;;;;;;;;3.20;78.34;100528.78;1088043;54;1002;-82
2023/10/16 04:53:58;;;;;;;;;;;;;;;3.27;78.59;100525.72;1088209;47;966;-82
2023/10/16 04:55:02;;;;;;;;;;;;;;;3.23;77.85;100532.09;1087908;47;1340;-82
2023/10/16 04:56:15;;;;;;;;;;;;;;;3.27;78.53;100524.84;1088266;54;846;-81
2023/10/16 04:58:47;;;;;;;;;;;;;;;3.19;78.97;100525.28;1088261;46;875;-81
2023/10/16 05:00:12;;;;;;;;;;;;;;;3.19;78.37;100524.41;1088142;54;1872;-82
2023/10/16 05:02:52;;;;;;;;;;;;;;;3.11;78.79;100525.72;1088211;47;946;-82
2023/10/16 05:06:38;;;;;;;;;;;;;;;3.19;78.14;100524.41;1088243;46;959;-81
2023/10/16 05:07:45;;;;;;;;;;;;;;;3.23;78.11;100521.53;1088033;54;1083;-82
2023/10/16 05:08:59;;;;;;;;;;;;;;;3.25;77.71;100514.38;1087953;47;951;-82
2023/10/16 05:10:51;;;;;;;;;;;;;;;3.26;77.74;100518.72;1088142;46;942;-82
2023/10/16 05:14:19;;;;;;;;;;;;;;;3.21;78.02;100519.91;1088027;47;1049;-82
2023/10/16 05:15:37;;;;;;;;;;;;;;;3.22;77.99;100525.09;1088051;54;1289;-81
2023/10/16 05:16:47;;;;;;;;;;;;;;;3.23;77.86;100532.09;1087863;54;1090;-80
2023/10/16 05:18:10;;;;;;;;;;;;;;;3.29;77.63;100528.25;1088027;54;885;-80
2023/10/16 05:19:43;;;;;;;;;;;;;;;3.32;77.46;100517.53;1087574;46;1194;-82
2023/10/16 05:22:05;;;;;;;;;;;;;;;3.34;77.04;100513.00;1088050;46;959;-81
2023/10/16 09:00:10;;;;;;;;;;;;;;;8.99;63.14;100516.44;1090556;46;1692;-80
2023/10/16 09:01:13;;;;;;;;;;;;;;;9.18;62.99;100518.44;1088592;54;1848;-81
2023/10/16 09:02:18;;;;;;;;;;;;;;;9.32;62.51;100525.34;1088165;46;1064;-80
2023/10/16 09:03:20;;;;;;;;;;;;;;;9.48;62.27;100518.75;1088319;47;1002;-82
2023/10/16 09:04:26;;;;;;;;;;;;;;;9.70;60.85;100520.50;1088238;54;887;-81
2023/10/16 09:05:27;;;;;;;;;;;;;;;9.84;60.13;100520.19;1088172;54;1343;-82
2023/10/16 09:06:32;;;;;;;;;;;;;;;9.98;61.00;100512.84;1088102;47;1126;-81
2023/10/16 09:07:34;;;;;;;;;;;;;;;10.09;60.79;100511.94;1088027;54;899;-81
2023/10/16 09:08:38;;;;;;;;;;;;;;;10.22;60.28;100517.94;1088407;54;1095;-80
2023/10/16 09:09:41;;;;;;;;;;;;;;;10.19;58.11;100512.84;1088150;54;1105;-82
2023/10/16 09:10:52;;;;;;;;;;;;;;;10.33;58.80;100517.00;1088130;47;862;-83
2023/10/16 09:12:04;;;;;;;;;;;;;;;10.47;58.88;100509.66;1088293;54;1023;-82
2023/10/16 09:13:16;;;;;;;;;;;;;;;10.54;59.06;100511.66;1088407;54;1375;-83
2023/10/16 09:14:17;;;;;;;;;;;;;;;10.54;59.33;100503.63;1088176;54;893;-82
2023/10/16 09:15:38;;;;;;;;;;;;;;;10.67;59.21;100499.91;1088286;54;1306;-82
2023/10/16 09:16:44;;;;;;;;;;;;;;;10.66;56.84;100501.75;1088229;47;872;-80
2023/10/16 09:17:50;;;;;;;;;;;;;;;10.91;58.04;100503.06;1088323;54;1116;-82
2023/10/16 09:18:51;;;;;;;;;;;;;;;11.00;58.39;100501.41;1088188;54;1071;-80
2023/10/16 09:19:55;;;;;;;;;;;;;;;11.07;57.46;100497.22;1088297;54;1047;-81
2023/10/16 09:21:00;;;;;;;;;;;;;;;11.15;56.95;100493.00;1088378;47;1847;-80
2023/10/16 09:22:17;;;;;;;;;;;;;;;11.02;57.56;100494.13;1088235;46;963;-80
2023/10/16 09:23:23;;;;;;;;;;;;;;;11.15;57.20;100499.22;1088052;47;1035;-80
2023/10/16 09:24:28;;;;;;;;;;;;;;;10.95;56.86;100492.97;1088235;47;1050;-80
2023/10/16 09:25:31;;;;;;;;;;;;;;;10.97;56.99;100496.34;1088101;54;1349;-79
2023/10/16 09:26:54;;;;;;;;;;;;;;;11.06;56.83;100489.34;1088230;46;934;-80
2023/10/16 09:27:56;;;;;;;;;;;;;;;11.21;56.33;100487.94;1088145;54;1059;-80
2023/10/16 09:29:04;;;;;;;;;;;;;;;11.26;56.55;100484.84;1088116;47;998;-81
2023/10/16 09:30:14;;;;;;;;;;;;;;;11.52;56.09;100485.16;1088025;47;1070;-79
2023/10/16 09:31:21;;;;;;;;;;;;;;;11.64;56.21;100483.19;1088293;54;1039;-80
2023/10/16 09:32:34;;;;;;;;;;;;;;;11.82;55.90;100482.47;1088100;54;1071;-81
2023/10/16 09:33:39;;;;;;;;;;;;;;;11.31;54.66;100481.75;1088092;54;959;-81
2023/10/16 09:34:41;;;;;;;;;;;;;;;11.06;54.69;100483.97;1088197;54;1028;-82
2023/10/16 09:35:46;;;;;;;;;;;;;;;11.25;55.88;100480.47;1088171;54;1402;-80
2023/10/16 09:37:15;;;;;;;;;;;;;;;11.42;54.47;100480.81;1088200;47;977;-81
2023/10/16 09:38:17;;;;;;;;;;;;;;;11.32;55.17;100476.28;1088235;47;980;-81
2023/10/16 09:39:19;;;;;;;;;;;;;;;11.48;55.02;100480.22;1088076;54;947;-80
2023/10/16 09:40:38;;;;;;;;;;;;;;;11.75;54.51;100473.31;1088229;54;1052;-82
2023/10/16 09:41:40;;;;;;;;;;;;;;;12.02;54.88;100469.94;1088305;54;1848;-82